Time,TemperatureF,DewpointF,PressureIn,WindDirection,WindDirectionDegrees,WindSpeedMPH,WindSpeedGustMPH,Humidity,HourlyPrecipIn,Conditions,Clouds,dailyrainin,SolarRadiationWatts/m^2,SoftwareType,DateUTC
2013-02-03 00:00:00,47.8,35.4,30.35,WNW,292,1.4,1.4,62,0.00,CLR,,0.00,1250.0,WeatherDisplay:10.37,2013-02-03 06:00:00,
2013-02-03 00:06:00,47.8,35.4,30.35,WNW,292,1.4,1.4,62,0.00,CLR,,0.00,1250.0,WeatherDisplay:10.37,2013-02-03 06:06:00,
2013-02-03 00:11:00,47.8,35.4,30.34,WNW,292,1.2,1.3,62,0.00,CLR,,0.00,0.0,WeatherDisplay:10.37,2013-02-03 06:11:00,
2013-02-03 00:16:00,47.1,35.6,30.34,West,270,0.0,0.1,64,0.00,CLR,,0.00,1360.0,WeatherDisplay:10.37,2013-02-03 06:16:00,
2013-02-03 00:21:00,47.1,35.6,30.34,SW,225,0.0,0.0,64,0.00,CLR,,0.00,1240.0,WeatherDisplay:10.37,2013-02-03 06:21:00,
2013-02-03 00:26:00,46.8,35.2,30.34,South,180,0.0,0.0,64,0.00,CLR,,0.00,970.0,WeatherDisplay:10.37,2013-02-03 06:26:00,
2013-02-03 00:32:00,46.8,35.6,30.34,South,180,0.0,0.0,65,0.00,CLR,,0.00,940.0,WeatherDisplay:10.37,2013-02-03 06:32:00,
2013-02-03 00:37:00,46.6,35.4,30.34,South,180,0.0,0.0,65,0.00,CLR,,0.00,1060.0,WeatherDisplay:10.37,2013-02-03 06:37:00,
2013-02-03 00:42:00,46.4,35.3,30.34,South,180,0.0,0.0,65,0.00,CLR,,0.00,1350.0,WeatherDisplay:10.37,2013-02-03 06:42:00,
2013-02-03 00:47:00,46.4,35.3,30.34,South,180,0.0,0.0,65,0.00,CLR,,0.00,1500.0,WeatherDisplay:10.37,2013-02-03 06:47:00,
2013-02-03 00:53:00,46.4,35.3,30.34,South,180,0.0,0.0,65,0.00,CLR,,0.00,0.0,WeatherDisplay:10.37,2013-02-03 06:53:00,
2013-02-03 00:58:00,46.4,35.3,30.34,South,180,0.0,0.0,65,0.00,CLR,,0.00,1560.0,WeatherDisplay:10.37,2013-02-03 06:58:00,
2013-02-03 01:03:00,46.4,35.7,30.34,South,180,0.0,0.1,66,0.00,CLR,,0.00,0.0,WeatherDisplay:10.37,2013-02-03 07:03:00,
2013-02-03 01:08:00,46.4,35.3,30.34,South,180,0.0,0.0,65,0.00,CLR,,0.00,0.0,WeatherDisplay:10.37,2013-02-03 07:08:00,
2013-02-03 01:14:00,46.2,35.5,30.34,South,180,0.0,0.0,66,0.00,CLR,,0.00,0.0,WeatherDisplay:10.37,2013-02-03 07:14:00,
2013-02-03 01:19:00,46.0,35.3,30.34,South,180,0.0,0.0,66,0.00,CLR,,0.00,0.0,WeatherDisplay:10.37,2013-02-03 07:19:00,
2013-02-03 01:24:00,46.2,35.5,30.34,South,180,0.0,0.0,66,0.00,CLR,,0.00,0.0,WeatherDisplay:10.37,2013-02-03 07:24:00,
2013-02-03 01:29:00,46.2,35.5,30.34,South,180,0.0,0.0,66,0.00,CLR,,0.00,0.0,WeatherDisplay:10.37,2013-02-03 07:29:00,
2013-02-03 01:35:00,46.2,35.5,30.34,SW,225,0.0,0.0,66,0.00,CLR,,0.00,0.0,WeatherDisplay:10.37,2013-02-03 07:35:00,
2013-02-03 01:40:00,45.9,35.1,30.34,SW,225,0.0,0.0,66,0.00,CLR,,0.00,0.0,WeatherDisplay:10.37,2013-02-03 07:40:00,
2013-02-03 01:45:00,45.9,35.1,30.34,WSW,248,0.0,0.0,66,0.00,CLR,,0.00,0.0,WeatherDisplay:10.37,2013-02-03 07:45:00,
2013-02-03 01:50:00,45.7,35.0,30.34,SW,225,0.0,0.0,66,0.00,CLR,,0.00,0.0,WeatherDisplay:10.37,2013-02-03 07:50:00,
2013-02-03 01:56:00,45.7,35.0,30.34,WSW,248,0.0,0.0,66,0.00,CLR,,0.00,0.0,WeatherDisplay:10.37,2013-02-03 07:56:00,
2013-02-03 02:01:00,45.5,34.8,30.34,SW,225,0.0,0.0,66,0.00,CLR,,0.00,0.0,WeatherDisplay:10.37,2013-02-03 08:01:00,
2013-02-03 02:06:00,45.5,35.2,30.34,WSW,248,0.0,0.0,67,0.00,CLR,,0.00,0.0,WeatherDisplay:10.37,2013-02-03 08:06:00,
2013-02-03 02:11:00,45.5,35.2,30.33,SW,225,0.0,0.0,67,0.00,CLR,,0.00,0.0,WeatherDisplay:10.37,2013-02-03 08:11:00,
2013-02-03 02:17:00,45.3,35.0,30.33,WSW,248,1.2,1.2,67,0.00,CLR,,0.00,0.0,WeatherDisplay:10.37,2013-02-03 08:17:00,
2013-02-03 02:22:00,45.1,34.8,30.33,WSW,248,1.4,1.4,67,0.00,CLR,,0.00,0.0,WeatherDisplay:10.37,2013-02-03 08:22:00,
2013-02-03 02:27:00,45.1,34.8,30.33,West,270,1.2,1.2,67,0.00,CLR,,0.00,0.0,WeatherDisplay:10.37,2013-02-03 08:27:00,
2013-02-03 02:32:00,45.0,34.7,30.33,West,270,1.2,1.2,67,0.00,CLR,,0.00,0.0,WeatherDisplay:10.37,2013-02-03 08:32:00,
2013-02-03 02:38:00,45.0,35.0,30.33,NW,315,0.0,0.3,68,0.00,CLR,,0.00,0.0,WeatherDisplay:10.37,2013-02-03 08:38:00,
2013-02-03 02:43:00,45.0,35.0,30.33,NW,315,1.2,1.2,68,0.00,CLR,,0.00,0.0,WeatherDisplay:10.37,2013-02-03 08:43:00,
2013-02-03 02:48:00,44.8,34.9,30.33,West,270,1.2,1.2,68,0.00,CLR,,0.00,0.0,WeatherDisplay:10.37,2013-02-03 08:48:00,
2013-02-03 02:54:00,44.8,34.9,30.32,West,270,0.0,0.3,68,0.00,CLR,,0.00,0.0,WeatherDisplay:10.37,2013-02-03 08:54:00,
2013-02-03 02:59:00,44.6,34.7,30.32,NW,315,0.0,0.1,68,0.00,CLR,,0.00,0.0,WeatherDisplay:10.37,2013-02-03 08:59:00,
2013-02-03 03:04:00,44.4,34.5,30.32,WNW,292,0.0,0.0,68,0.00,CLR,,0.00,0.0,WeatherDisplay:10.37,2013-02-03 09:04:00,
2013-02-03 03:09:00,44.4,34.5,30.32,WNW,292,0.0,0.0,68,0.00,CLR,,0.00,0.0,WeatherDisplay:10.37,2013-02-03 09:09:00,
2013-02-03 03:15:00,44.4,34.9,30.32,NW,315,1.2,1.2,69,0.00,CLR,,0.00,0.0,WeatherDisplay:10.37,2013-02-03 09:15:00,
2013-02-03 03:20:00,44.1,34.5,30.32,NW,315,1.2,1.2,69,0.00,CLR,,0.00,1540.0,WeatherDisplay:10.37,2013-02-03 09:20:00,
2013-02-03 03:25:00,44.1,34.5,30.32,NW,315,1.2,1.2,69,0.00,CLR,,0.00,1400.0,WeatherDisplay:10.37,2013-02-03 09:25:00,
2013-02-03 03:30:00,43.5,34.0,30.31,NW,315,1.2,1.2,69,0.00,CLR,,0.00,1280.0,WeatherDisplay:10.37,2013-02-03 09:30:00,
2013-02-03 03:36:00,43.7,34.2,30.31,NW,315,0.0,0.3,69,0.00,CLR,,0.00,1180.0,WeatherDisplay:10.37,2013-02-03 09:36:00,
2013-02-03 03:41:00,43.3,33.8,30.31,NW,315,1.2,1.2,69,0.00,CLR,,0.00,1120.0,WeatherDisplay:10.37,2013-02-03 09:41:00,
2013-02-03 03:46:00,43.2,33.7,30.31,NW,315,0.0,0.2,69,0.00,CLR,,0.00,1030.0,WeatherDisplay:10.37,2013-02-03 09:46:00,
2013-02-03 03:52:00,43.2,33.7,30.31,WNW,292,0.0,0.0,69,0.00,CLR,,0.00,1040.0,WeatherDisplay:10.37,2013-02-03 09:52:00,
2013-02-03 03:57:00,43.3,34.2,30.31,WNW,292,0.0,0.0,70,0.00,CLR,,0.00,1100.0,WeatherDisplay:10.37,2013-02-03 09:57:00,
2013-02-03 04:02:00,43.2,34.0,30.31,NW,315,0.0,0.0,70,0.00,CLR,,0.00,1160.0,WeatherDisplay:10.37,2013-02-03 10:02:00,
2013-02-03 04:07:00,43.0,33.9,30.31,NW,315,0.0,0.0,70,0.00,CLR,,0.00,1120.0,WeatherDisplay:10.37,2013-02-03 10:07:00,
2013-02-03 04:13:00,42.8,33.7,30.30,NW,315,0.0,0.0,70,0.00,CLR,,0.00,0.0,WeatherDisplay:10.37,2013-02-03 10:13:00,
2013-02-03 04:18:00,42.6,33.5,30.30,NW,315,0.0,0.0,70,0.00,CLR,,0.00,1080.0,WeatherDisplay:10.37,2013-02-03 10:18:00,
2013-02-03 04:23:00,42.6,33.5,30.30,SW,225,0.0,0.0,70,0.00,CLR,,0.00,990.0,WeatherDisplay:10.37,2013-02-03 10:23:00,
2013-02-03 04:28:00,42.6,33.5,30.30,West,270,0.0,0.0,70,0.00,CLR,,0.00,990.0,WeatherDisplay:10.37,2013-02-03 10:28:00,
2013-02-03 04:34:00,42.6,33.5,30.30,West,270,0.0,0.0,70,0.00,CLR,,0.00,1250.0,WeatherDisplay:10.37,2013-02-03 10:34:00,
2013-02-03 04:39:00,42.3,33.5,30.30,West,270,0.0,0.0,71,0.00,CLR,,0.00,0.0,WeatherDisplay:10.37,2013-02-03 10:39:00,
2013-02-03 04:44:00,42.3,33.5,30.30,West,270,1.4,1.4,71,0.00,CLR,,0.00,0.0,WeatherDisplay:10.37,2013-02-03 10:44:00,
2013-02-03 04:49:00,42.3,33.5,30.30,West,270,0.0,0.1,71,0.00,CLR,,0.00,0.0,WeatherDisplay:10.37,2013-02-03 10:49:00,
2013-02-03 04:54:00,42.1,33.4,30.30,West,270,0.0,0.0,71,0.00,CLR,,0.00,0.0,WeatherDisplay:10.37,2013-02-03 10:54:00,
2013-02-03 05:00:00,42.1,33.4,30.30,West,270,0.0,0.0,71,0.00,CLR,,0.00,0.0,WeatherDisplay:10.37,2013-02-03 11:00:00,
2013-02-03 05:05:00,42.1,33.4,30.30,WSW,248,0.0,0.0,71,0.00,CLR,,0.00,0.0,WeatherDisplay:10.37,2013-02-03 11:05:00,
2013-02-03 05:10:00,42.1,33.7,30.29,WSW,248,0.0,0.0,72,0.00,CLR,,0.00,0.0,WeatherDisplay:10.37,2013-02-03 11:10:00,
2013-02-03 05:16:00,41.9,33.5,30.29,WNW,292,0.0,0.0,72,0.00,CLR,,0.00,0.0,WeatherDisplay:10.37,2013-02-03 11:16:00,
2013-02-03 05:21:00,41.9,33.5,30.29,WNW,292,0.0,0.0,72,0.00,CLR,,0.00,0.0,WeatherDisplay:10.37,2013-02-03 11:21:00,
2013-02-03 05:26:00,41.9,33.5,30.29,NW,315,1.2,0.0,72,0.00,CLR,,0.00,0.0,WeatherDisplay:10.37,2013-02-03 11:26:00,
2013-02-03 05:31:00,41.9,33.5,30.29,NW,315,1.2,1.2,72,0.00,CLR,,0.00,0.0,WeatherDisplay:10.37,2013-02-03 11:31:00,
2013-02-03 05:37:00,41.9,33.5,30.29,NNW,338,1.2,1.3,72,0.00,CLR,,0.00,1530.0,WeatherDisplay:10.37,2013-02-03 11:37:00,
2013-02-03 05:42:00,41.5,33.2,30.29,NW,315,2.3,2.3,72,0.00,CLR,,0.00,0.0,WeatherDisplay:10.37,2013-02-03 11:42:00,
2013-02-03 05:47:00,41.5,33.5,30.29,NW,315,1.2,1.2,73,0.00,CLR,,0.00,0.0,WeatherDisplay:10.37,2013-02-03 11:47:00,
2013-02-03 05:52:00,41.4,33.4,30.30,WNW,292,1.2,1.3,73,0.00,CLR,,0.00,0.0,WeatherDisplay:10.37,2013-02-03 11:52:00,
2013-02-03 05:57:00,41.4,33.4,30.30,WNW,292,1.2,1.2,73,0.00,CLR,,0.00,0.0,WeatherDisplay:10.37,2013-02-03 11:57:00,
2013-02-03 06:03:00,41.2,33.2,30.30,West,270,0.0,0.6,73,0.00,CLR,,0.00,0.0,WeatherDisplay:10.37,2013-02-03 12:03:00,
2013-02-03 06:08:00,41.2,33.2,30.30,West,270,0.0,0.6,73,0.00,CLR,,0.00,0.0,WeatherDisplay:10.37,2013-02-03 12:08:00,
2013-02-03 06:13:00,40.8,32.5,30.29,South,180,0.0,0.0,72,0.00,CLR,,0.00,0.0,WeatherDisplay:10.37,2013-02-03 12:13:00,
2013-02-03 06:18:00,40.8,32.8,30.29,SW,225,0.0,0.0,73,0.00,CLR,,0.00,0.0,WeatherDisplay:10.37,2013-02-03 12:18:00,
2013-02-03 06:24:00,40.6,32.7,30.29,SW,225,0.0,0.0,73,0.00,CLR,,0.00,0.0,WeatherDisplay:10.37,2013-02-03 12:24:00,
2013-02-03 06:29:00,40.8,33.2,30.30,SSW,202,0.0,0.0,74,0.00,CLR,,0.00,0.0,WeatherDisplay:10.37,2013-02-03 12:29:00,
2013-02-03 06:34:00,40.6,33.0,30.30,SW,225,0.0,0.0,74,0.00,CLR,,0.00,0.0,WeatherDisplay:10.37,2013-02-03 12:34:00,
2013-02-03 06:39:00,40.8,33.2,30.30,SW,225,0.0,0.0,74,0.00,CLR,,0.00,0.0,WeatherDisplay:10.37,2013-02-03 12:39:00,
2013-02-03 06:44:00,40.8,33.2,30.30,WSW,248,0.0,0.0,74,0.00,CLR,,0.00,0.0,WeatherDisplay:10.37,2013-02-03 12:44:00,
2013-02-03 06:50:00,40.8,33.2,30.29,SW,225,0.0,0.0,74,0.00,CLR,,0.00,0.0,WeatherDisplay:10.37,2013-02-03 12:50:00,
2013-02-03 06:55:00,41.2,33.5,30.29,SW,225,0.0,0.0,74,0.00,CLR,,0.00,0.0,WeatherDisplay:10.37,2013-02-03 12:55:00,
2013-02-03 07:00:00,40.8,33.2,30.29,SW,225,0.0,0.0,74,0.00,OVC,,0.00,0.0,WeatherDisplay:10.37,2013-02-03 13:00:00,
2013-02-03 07:05:00,40.8,33.2,30.29,WSW,248,0.0,0.0,74,0.00,OVC,,0.00,0.0,WeatherDisplay:10.37,2013-02-03 13:05:00,
2013-02-03 07:11:00,40.8,33.5,30.30,SW,225,0.0,0.0,75,0.00,OVC,,0.00,0.0,WeatherDisplay:10.37,2013-02-03 13:11:00,
2013-02-03 07:16:00,40.8,33.2,30.30,South,180,0.0,0.0,74,0.00,OVC,,0.00,0.0,WeatherDisplay:10.37,2013-02-03 13:16:00,
2013-02-03 07:21:00,40.8,33.2,30.30,WSW,248,0.0,0.0,74,0.00,OVC,,0.00,0.0,WeatherDisplay:10.37,2013-02-03 13:21:00,
2013-02-03 07:26:00,40.6,33.0,30.30,WSW,248,0.0,0.0,74,0.00,OVC,,0.00,0.0,WeatherDisplay:10.37,2013-02-03 13:26:00,
2013-02-03 07:31:00,40.6,33.3,30.31,SSW,202,0.0,0.0,75,0.00,OVC,,0.00,0.0,WeatherDisplay:10.37,2013-02-03 13:31:00,
2013-02-03 07:37:00,40.6,33.3,30.31,South,180,0.0,0.0,75,0.00,OVC,,0.00,0.0,WeatherDisplay:10.37,2013-02-03 13:37:00,
2013-02-03 07:42:00,40.6,33.3,30.31,SSE,158,0.0,0.1,75,0.00,OVC,,0.00,0.0,WeatherDisplay:10.37,2013-02-03 13:42:00,
2013-02-03 07:47:00,40.6,33.3,30.31,SE,135,1.2,1.2,75,0.00,OVC,,0.00,0.0,WeatherDisplay:10.37,2013-02-03 13:47:00,
2013-02-03 07:52:00,41.2,33.9,30.32,SE,135,0.0,0.3,75,0.00,OVC,,0.00,0.0,WeatherDisplay:10.37,2013-02-03 13:52:00,
2013-02-03 07:57:00,41.2,33.9,30.32,ESE,112,0.0,0.1,75,0.00,OVC,,0.00,0.0,WeatherDisplay:10.37,2013-02-03 13:57:00,
2013-02-03 08:03:00,41.2,33.9,30.32,ESE,112,0.0,0.0,75,0.00,OVC,,0.00,0.0,WeatherDisplay:10.37,2013-02-03 14:03:00,
2013-02-03 08:08:00,41.5,34.2,30.32,ESE,112,0.0,0.0,75,0.00,OVC,,0.00,0.0,WeatherDisplay:10.37,2013-02-03 14:08:00,
2013-02-03 08:13:00,41.4,34.0,30.31,East,90,0.0,0.0,75,0.00,OVC,,0.00,0.0,WeatherDisplay:10.37,2013-02-03 14:13:00,
2013-02-03 08:18:00,41.4,34.0,30.31,ENE,68,0.0,0.0,75,0.00,OVC,,0.00,0.0,WeatherDisplay:10.37,2013-02-03 14:18:00,
2013-02-03 08:24:00,41.5,34.2,30.31,East,90,0.0,0.0,75,0.00,OVC,,0.00,0.0,WeatherDisplay:10.37,2013-02-03 14:24:00,
2013-02-03 08:29:00,41.7,34.4,30.32,East,90,0.0,0.0,75,0.00,OVC,,0.00,0.0,WeatherDisplay:10.37,2013-02-03 14:29:00,
2013-02-03 08:34:00,42.1,34.7,30.32,South,180,0.0,0.0,75,0.00,OVC,,0.00,0.0,WeatherDisplay:10.37,2013-02-03 14:34:00,
2013-02-03 08:39:00,42.1,34.7,30.32,SSW,202,0.0,0.0,75,0.00,OVC,,0.00,0.0,WeatherDisplay:10.37,2013-02-03 14:39:00,
2013-02-03 08:45:00,42.6,35.2,30.32,SSE,158,0.0,0.0,75,0.00,OVC,,0.00,0.0,WeatherDisplay:10.37,2013-02-03 14:45:00,
2013-02-03 08:50:00,42.8,35.4,30.32,ESE,112,0.0,0.0,75,0.00,OVC,,0.00,0.0,WeatherDisplay:10.37,2013-02-03 14:50:00,
2013-02-03 08:55:00,43.7,36.3,30.32,South,180,1.2,0.0,75,0.00,OVC,,0.00,0.0,WeatherDisplay:10.37,2013-02-03 14:55:00,
2013-02-03 09:00:00,44.2,36.1,30.32,SSW,202,0.0,0.1,73,0.00,OVC,,0.00,0.0,WeatherDisplay:10.37,2013-02-03 15:00:00,
2013-02-03 09:06:00,44.6,36.5,30.32,WSW,248,0.0,0.1,73,0.00,OVC,,0.00,0.0,WeatherDisplay:10.37,2013-02-03 15:06:00,
2013-02-03 09:11:00,45.5,36.6,30.33,SW,225,0.0,0.0,71,0.00,OVC,,0.00,0.0,WeatherDisplay:10.37,2013-02-03 15:11:00,
2013-02-03 09:16:00,45.7,36.8,30.33,SW,225,0.0,0.0,71,0.00,OVC,,0.00,0.0,WeatherDisplay:10.37,2013-02-03 15:16:00,
2013-02-03 09:21:00,46.2,37.3,30.33,SW,225,0.0,0.0,71,0.00,OVC,,0.00,0.0,WeatherDisplay:10.37,2013-02-03 15:21:00,
2013-02-03 09:26:00,46.8,37.5,30.33,West,270,0.0,0.0,70,0.00,OVC,,0.00,0.0,WeatherDisplay:10.37,2013-02-03 15:26:00,
2013-02-03 09:32:00,47.1,37.8,30.32,SSW,202,0.0,0.0,70,0.00,OVC,,0.00,1310.0,WeatherDisplay:10.37,2013-02-03 15:32:00,
2013-02-03 09:37:00,47.8,38.2,30.32,SSW,202,0.0,0.1,69,0.00,OVC,,0.00,610.0,WeatherDisplay:10.37,2013-02-03 15:37:00,
2013-02-03 09:42:00,49.1,39.0,30.32,SW,225,0.0,0.1,68,0.00,OVC,,0.00,300.0,WeatherDisplay:10.37,2013-02-03 15:42:00,
2013-02-03 09:47:00,49.3,39.2,30.32,South,180,1.2,0.0,68,0.00,OVC,,0.00,300.0,WeatherDisplay:10.37,2013-02-03 15:47:00,
2013-02-03 09:53:00,50.2,38.9,30.33,South,180,2.3,2.3,65,0.00,OVC,,0.00,270.0,WeatherDisplay:10.37,2013-02-03 15:53:00,
2013-02-03 09:58:00,50.7,39.0,30.33,South,180,1.2,1.2,64,0.00,OVC,,0.00,270.0,WeatherDisplay:10.37,2013-02-03 15:58:00,
2013-02-03 10:03:00,51.3,38.7,30.33,West,270,2.3,2.3,62,0.00,OVC,,0.00,280.0,WeatherDisplay:10.37,2013-02-03 16:03:00,
2013-02-03 10:08:00,51.8,37.9,30.32,SSW,202,0.0,0.3,59,0.00,OVC,,0.00,280.0,WeatherDisplay:10.37,2013-02-03 16:08:00,
2013-02-03 10:14:00,52.7,37.9,30.32,South,180,0.0,0.3,57,0.00,OVC,,0.00,320.0,WeatherDisplay:10.37,2013-02-03 16:14:00,
2013-02-03 10:19:00,53.2,37.9,30.32,SW,225,1.5,1.5,56,0.00,OVC,,0.00,370.0,WeatherDisplay:10.37,2013-02-03 16:19:00,
2013-02-03 10:24:00,53.4,37.6,30.32,South,180,1.2,1.2,55,0.00,OVC,,0.00,440.0,WeatherDisplay:10.37,2013-02-03 16:24:00,
2013-02-03 10:29:00,54.1,37.8,30.32,South,180,1.2,1.2,54,0.00,OVC,,0.00,440.0,WeatherDisplay:10.37,2013-02-03 16:29:00,
2013-02-03 10:35:00,55.0,37.7,30.32,SSE,158,3.5,3.5,52,0.00,OVC,,0.00,610.0,WeatherDisplay:10.37,2013-02-03 16:35:00,
2013-02-03 10:40:00,55.6,38.2,30.32,South,180,2.3,2.3,52,0.00,OVC,,0.00,680.0,WeatherDisplay:10.37,2013-02-03 16:40:00,
2013-02-03 10:45:00,56.3,38.4,30.32,WSW,248,0.0,0.9,51,0.00,OVC,,0.00,810.0,WeatherDisplay:10.37,2013-02-03 16:45:00,
2013-02-03 10:50:00,56.7,38.2,30.32,SE,135,2.3,2.3,50,0.00,OVC,,0.00,910.0,WeatherDisplay:10.37,2013-02-03 16:50:00,
2013-02-03 10:56:00,57.0,37.5,30.32,SSW,202,1.2,1.2,48,0.00,OVC,,0.00,1020.0,WeatherDisplay:10.37,2013-02-03 16:56:00,
2013-02-03 11:01:00,57.6,37.5,30.32,South,180,0.0,0.8,47,0.00,OVC,,0.00,1020.0,WeatherDisplay:10.37,2013-02-03 17:01:00,
2013-02-03 11:06:00,57.9,37.8,30.32,SE,135,2.3,2.3,47,0.00,OVC,,0.00,1050.0,WeatherDisplay:10.37,2013-02-03 17:06:00,
2013-02-03 11:11:00,58.5,37.2,30.31,SW,225,1.2,1.2,45,0.00,OVC,,0.00,1050.0,WeatherDisplay:10.37,2013-02-03 17:11:00,
2013-02-03 11:16:00,58.8,37.5,30.31,WSW,248,1.2,1.2,45,0.00,OVC,,0.00,1120.0,WeatherDisplay:10.37,2013-02-03 17:16:00,
2013-02-03 11:22:00,59.0,38.2,30.31,South,180,2.3,2.3,46,0.00,OVC,,0.00,1140.0,WeatherDisplay:10.37,2013-02-03 17:22:00,
2013-02-03 11:27:00,59.4,37.4,30.31,WNW,292,1.2,1.2,44,0.00,OVC,,0.00,1070.0,WeatherDisplay:10.37,2013-02-03 17:27:00,
2013-02-03 11:32:00,59.7,37.2,30.31,SSE,158,2.3,2.3,43,0.00,OVC,,0.00,610.0,WeatherDisplay:10.37,2013-02-03 17:32:00,
2013-02-03 11:37:00,60.3,36.4,30.31,South,180,2.3,2.3,41,0.00,OVC,,0.00,1060.0,WeatherDisplay:10.37,2013-02-03 17:37:00,
2013-02-03 11:42:00,60.6,35.5,30.31,SE,135,4.6,4.6,39,0.00,OVC,,0.00,1050.0,WeatherDisplay:10.37,2013-02-03 17:42:00,
2013-02-03 11:47:00,61.5,35.7,30.31,SE,135,5.8,5.8,38,0.00,OVC,,0.00,1010.0,WeatherDisplay:10.37,2013-02-03 17:47:00,
2013-02-03 11:53:00,61.9,36.0,30.30,SSE,158,3.5,3.5,38,0.00,OVC,,0.00,830.0,WeatherDisplay:10.37,2013-02-03 17:53:00,
2013-02-03 11:58:00,62.1,34.8,30.30,SSE,158,5.8,5.8,36,0.00,OVC,,0.00,830.0,WeatherDisplay:10.37,2013-02-03 17:58:00,
2013-02-03 12:03:00,62.6,34.5,30.30,ESE,112,1.2,4.0,35,0.00,OVC,,0.00,860.0,WeatherDisplay:10.37,2013-02-03 18:03:00,
2013-02-03 12:08:00,62.6,34.5,30.28,ESE,112,1.2,4.0,35,0.00,OVC,,0.00,860.0,WeatherDisplay:10.37,2013-02-03 18:08:00,
2013-02-03 12:14:00,63.1,34.3,30.28,SSE,158,2.3,4.6,34,0.00,OVC,,0.00,910.0,WeatherDisplay:10.37,2013-02-03 18:14:00,
2013-02-03 12:19:00,63.9,34.2,30.28,SE,135,10.4,10.4,33,0.00,OVC,,0.00,880.0,WeatherDisplay:10.37,2013-02-03 18:19:00,
2013-02-03 12:24:00,64.2,34.5,30.28,SE,135,3.5,3.5,33,0.00,OVC,,0.00,910.0,WeatherDisplay:10.37,2013-02-03 18:24:00,
2013-02-03 12:29:00,64.6,34.0,30.28,SE,135,6.9,6.9,32,0.00,OVC,,0.00,910.0,WeatherDisplay:10.37,2013-02-03 18:29:00,
2013-02-03 12:34:00,64.9,34.3,30.28,SE,135,7.9,7.9,32,0.00,OVC,,0.00,830.0,WeatherDisplay:10.37,2013-02-03 18:34:00,
2013-02-03 12:40:00,65.1,33.7,30.28,SE,135,6.9,6.9,31,0.00,OVC,,0.00,850.0,WeatherDisplay:10.37,2013-02-03 18:40:00,
2013-02-03 12:45:00,65.7,33.4,30.28,SE,135,8.1,8.1,30,0.00,OVC,,0.00,560.0,WeatherDisplay:10.37,2013-02-03 18:45:00,
2013-02-03 12:50:00,65.5,33.2,30.26,SSE,158,4.6,4.6,30,0.00,OVC,,0.00,560.0,WeatherDisplay:10.37,2013-02-03 18:50:00,
2013-02-03 12:55:00,66.0,32.0,30.26,SSE,158,3.5,3.5,28,0.00,OVC,,0.00,840.0,WeatherDisplay:10.37,2013-02-03 18:55:00,
2013-02-03 13:01:00,66.6,32.4,30.26,SSE,158,8.1,8.1,28,0.00,OVC,,0.00,820.0,WeatherDisplay:10.37,2013-02-03 19:01:00,
2013-02-03 13:06:00,66.7,32.6,30.26,South,180,4.8,4.8,28,0.00,OVC,,0.00,840.0,WeatherDisplay:10.37,2013-02-03 19:06:00,
2013-02-03 13:11:00,67.1,32.9,30.25,South,180,3.5,3.5,28,0.00,OVC,,0.00,900.0,WeatherDisplay:10.37,2013-02-03 19:11:00,
2013-02-03 13:16:00,67.1,32.0,30.25,ESE,112,6.9,6.9,27,0.00,OVC,,0.00,900.0,WeatherDisplay:10.37,2013-02-03 19:16:00,
2013-02-03 13:21:00,67.5,32.3,30.25,ENE,68,9.2,9.2,27,0.00,OVC,,0.00,860.0,WeatherDisplay:10.37,2013-02-03 19:21:00,
2013-02-03 13:26:00,67.8,31.7,30.25,South,180,9.2,9.2,26,0.00,CLR,,0.00,860.0,WeatherDisplay:10.37,2013-02-03 19:26:00,
2013-02-03 13:31:00,67.8,31.7,30.23,ESE,112,6.0,6.0,26,0.00,CLR,,0.00,840.0,WeatherDisplay:10.37,2013-02-03 19:31:00,
2013-02-03 13:37:00,68.2,32.0,30.23,SSE,158,9.2,9.2,26,0.00,CLR,,0.00,840.0,WeatherDisplay:10.37,2013-02-03 19:37:00,
2013-02-03 13:42:00,68.2,32.0,30.23,SSE,158,3.5,5.5,26,0.00,CLR,,0.00,870.0,WeatherDisplay:10.37,2013-02-03 19:42:00,
2013-02-03 13:47:00,68.5,32.3,30.23,SE,135,6.9,6.9,26,0.00,CLR,,0.00,850.0,WeatherDisplay:10.37,2013-02-03 19:47:00,
2013-02-03 13:52:00,68.9,33.5,30.21,SSE,158,4.6,4.6,27,0.00,CLR,,0.00,830.0,WeatherDisplay:10.37,2013-02-03 19:52:00,
2013-02-03 13:57:00,68.9,33.5,30.21,SE,135,8.1,8.1,27,0.00,CLR,,0.00,810.0,WeatherDisplay:10.37,2013-02-03 19:57:00,
2013-02-03 14:02:00,68.9,33.5,30.21,ESE,112,4.6,5.1,27,0.00,CLR,,0.00,870.0,WeatherDisplay:10.37,2013-02-03 20:02:00,
2013-02-03 14:07:00,69.3,33.8,30.21,ESE,112,10.4,10.4,27,0.00,CLR,,0.00,870.0,WeatherDisplay:10.37,2013-02-03 20:07:00,
2013-02-03 14:13:00,69.3,32.9,30.20,SSE,158,5.8,5.8,26,0.00,CLR,,0.00,880.0,WeatherDisplay:10.37,2013-02-03 20:13:00,
2013-02-03 14:18:00,69.6,33.2,30.20,South,180,6.9,6.9,26,0.00,CLR,,0.00,880.0,WeatherDisplay:10.37,2013-02-03 20:18:00,
2013-02-03 14:23:00,69.6,34.1,30.20,SSE,158,4.6,4.6,27,0.00,CLR,,0.00,850.0,WeatherDisplay:10.37,2013-02-03 20:23:00,
2013-02-03 14:28:00,70.0,32.5,30.20,SSE,158,3.6,4.4,25,0.00,CLR,,0.00,850.0,WeatherDisplay:10.37,2013-02-03 20:28:00,
2013-02-03 14:33:00,69.8,31.4,30.19,SE,135,6.9,6.9,24,0.00,CLR,,0.00,730.0,WeatherDisplay:10.37,2013-02-03 20:33:00,
2013-02-03 14:38:00,70.0,31.5,30.19,East,90,9.2,9.2,24,0.00,CLR,,0.00,490.0,WeatherDisplay:10.37,2013-02-03 20:38:00,
2013-02-03 14:44:00,69.8,31.4,30.19,SSE,158,11.5,11.5,24,0.00,CLR,,0.00,530.0,WeatherDisplay:10.37,2013-02-03 20:44:00,
2013-02-03 14:49:00,69.8,31.4,30.17,SE,135,6.9,6.9,24,0.00,CLR,,0.00,530.0,WeatherDisplay:10.37,2013-02-03 20:49:00,
2013-02-03 14:54:00,70.2,31.7,30.17,SE,135,6.9,6.9,24,0.00,CLR,,0.00,620.0,WeatherDisplay:10.37,2013-02-03 20:54:00,
2013-02-03 14:59:00,70.3,31.8,30.17,SSE,158,5.8,5.8,24,0.00,CLR,,0.00,670.0,WeatherDisplay:10.37,2013-02-03 20:59:00,
2013-02-03 15:04:00,70.7,31.1,30.17,SE,135,3.8,3.9,23,0.00,CLR,,0.00,750.0,WeatherDisplay:10.37,2013-02-03 21:04:00,
2013-02-03 15:09:00,70.5,30.9,30.17,ESE,112,10.4,10.4,23,0.00,CLR,,0.00,750.0,WeatherDisplay:10.37,2013-02-03 21:09:00,
2013-02-03 15:14:00,70.2,29.5,30.17,SE,135,8.1,8.1,22,0.00,CLR,,0.00,320.0,WeatherDisplay:10.37,2013-02-03 21:14:00,
2013-02-03 15:19:00,70.0,30.5,30.17,ESE,112,9.2,9.2,23,0.00,FEW,,0.00,260.0,WeatherDisplay:10.37,2013-02-03 21:19:00,
2013-02-03 15:25:00,69.8,30.3,30.17,ESE,112,10.4,10.4,23,0.00,SCT,,0.00,240.0,WeatherDisplay:10.37,2013-02-03 21:25:00,
2013-02-03 15:30:00,70.0,30.5,30.16,ESE,112,5.9,5.9,23,0.00,SCT,,0.00,240.0,WeatherDisplay:10.37,2013-02-03 21:30:00,
2013-02-03 15:35:00,70.0,31.5,30.16,SE,135,9.2,9.2,24,0.00,SCT,,0.00,250.0,WeatherDisplay:10.37,2013-02-03 21:35:00,
2013-02-03 15:40:00,70.0,31.5,30.16,SSE,158,5.8,5.8,24,0.00,CLR,,0.00,350.0,WeatherDisplay:10.37,2013-02-03 21:40:00,
2013-02-03 15:45:00,70.2,30.6,30.16,South,180,9.2,9.2,23,0.00,FEW,,0.00,330.0,WeatherDisplay:10.37,2013-02-03 21:45:00,
2013-02-03 15:50:00,70.0,31.5,30.14,SE,135,10.4,10.4,24,0.00,FEW,,0.00,280.0,WeatherDisplay:10.37,2013-02-03 21:50:00,
2013-02-03 15:55:00,69.6,31.2,30.14,SW,225,9.2,9.2,24,0.00,BKN,,0.00,200.0,WeatherDisplay:10.37,2013-02-03 21:55:00,
2013-02-03 16:01:00,69.6,31.2,30.14,SE,135,11.5,11.5,24,0.00,BKN,,0.00,190.0,WeatherDisplay:10.37,2013-02-03 22:01:00,
2013-02-03 16:06:00,69.6,31.2,30.14,SE,135,6.9,6.9,24,0.00,SCT,,0.00,300.0,WeatherDisplay:10.37,2013-02-03 22:06:00,
2013-02-03 16:11:00,69.6,31.2,30.13,SE,135,10.4,10.4,24,0.00,BKN,,0.00,250.0,WeatherDisplay:10.37,2013-02-03 22:11:00,
2013-02-03 16:16:00,69.6,31.2,30.13,SE,135,9.2,9.2,24,0.00,FEW,,0.00,370.0,WeatherDisplay:10.37,2013-02-03 22:16:00,
2013-02-03 16:21:00,69.4,31.0,30.13,SSE,158,6.9,6.9,24,0.00,BKN,,0.00,200.0,WeatherDisplay:10.37,2013-02-03 22:21:00,
2013-02-03 16:26:00,69.4,30.0,30.13,SE,135,11.5,11.5,23,0.00,OVC,,0.00,180.0,WeatherDisplay:10.37,2013-02-03 22:26:00,
2013-02-03 16:32:00,69.4,31.0,30.12,ESE,112,8.1,8.1,24,0.00,OVC,,0.00,170.0,WeatherDisplay:10.37,2013-02-03 22:32:00,
2013-02-03 16:37:00,69.3,30.9,30.12,SSE,158,11.7,11.7,24,0.00,OVC,,0.00,150.0,WeatherDisplay:10.37,2013-02-03 22:37:00,
2013-02-03 16:42:00,69.4,31.0,30.12,SE,135,8.1,8.1,24,0.00,OVC,,0.00,160.0,WeatherDisplay:10.37,2013-02-03 22:42:00,
2013-02-03 16:47:00,69.3,30.9,30.12,SE,135,12.7,12.7,24,0.00,OVC,,0.00,140.0,WeatherDisplay:10.37,2013-02-03 22:47:00,
2013-02-03 16:52:00,69.6,31.2,30.11,SE,135,11.7,11.7,24,0.00,OVC,,0.00,90.0,WeatherDisplay:10.37,2013-02-03 22:52:00,
2013-02-03 16:58:00,69.6,31.2,30.11,SE,135,10.4,10.4,24,0.00,OVC,,0.00,90.0,WeatherDisplay:10.37,2013-02-03 22:58:00,
2013-02-03 17:03:00,69.1,30.7,30.11,SSE,158,8.1,8.1,24,0.00,OVC,,0.00,80.0,WeatherDisplay:10.37,2013-02-03 23:03:00,
2013-02-03 17:08:00,68.9,31.6,30.11,ESE,112,5.8,6.7,25,0.00,OVC,,0.00,80.0,WeatherDisplay:10.37,2013-02-03 23:08:00,
2013-02-03 17:13:00,68.5,31.3,30.10,SSE,158,6.9,6.9,25,0.00,OVC,,0.00,50.0,WeatherDisplay:10.37,2013-02-03 23:13:00,
2013-02-03 17:18:00,68.5,31.3,30.10,East,90,6.9,6.9,25,0.00,OVC,,0.00,50.0,WeatherDisplay:10.37,2013-02-03 23:18:00,
2013-02-03 17:23:00,68.2,31.0,30.10,SE,135,10.4,10.4,25,0.00,OVC,,0.00,30.0,WeatherDisplay:10.37,2013-02-03 23:23:00,
2013-02-03 17:29:00,67.8,31.7,30.09,SE,135,9.2,9.2,26,0.00,OVC,,0.00,30.0,WeatherDisplay:10.37,2013-02-03 23:29:00,
2013-02-03 17:34:00,67.8,30.7,30.09,SSE,158,9.2,9.2,25,0.00,OVC,,0.00,50.0,WeatherDisplay:10.37,2013-02-03 23:34:00,
2013-02-03 17:39:00,67.5,31.3,30.09,ESE,112,9.2,9.2,26,0.00,OVC,,0.00,110.0,WeatherDisplay:10.37,2013-02-03 23:39:00,
2013-02-03 17:45:00,67.1,31.0,30.09,SSW,202,5.8,5.8,26,0.00,OVC,,0.00,200.0,WeatherDisplay:10.37,2013-02-03 23:45:00,
2013-02-03 17:50:00,67.1,31.0,30.09,SE,135,6.9,6.9,26,0.00,OVC,,0.00,200.0,WeatherDisplay:10.37,2013-02-03 23:50:00,
2013-02-03 17:55:00,66.6,30.6,30.09,SE,135,8.1,8.1,26,0.00,SCT,,0.00,420.0,WeatherDisplay:10.37,2013-02-03 23:55:00,
2013-02-03 18:00:00,66.4,30.4,30.09,South,180,5.2,5.2,26,0.00,FEW,,0.00,560.0,WeatherDisplay:10.37,2013-02-04 00:00:00,
2013-02-03 18:05:00,66.4,31.4,30.09,SSE,158,9.2,9.2,27,0.00,CLR,,0.00,720.0,WeatherDisplay:10.37,2013-02-04 00:05:00,
2013-02-03 18:11:00,65.8,31.8,30.09,ESE,112,6.9,6.9,28,0.00,CLR,,0.00,970.0,WeatherDisplay:10.37,2013-02-04 00:11:00,
2013-02-03 18:16:00,65.8,31.8,30.09,SSE,158,5.8,5.8,28,0.00,CLR,,0.00,1140.0,WeatherDisplay:10.37,2013-02-04 00:16:00,
2013-02-03 18:21:00,65.7,31.6,30.09,SE,135,6.9,6.9,28,0.00,CLR,,0.00,1140.0,WeatherDisplay:10.37,2013-02-04 00:21:00,
2013-02-03 18:26:00,65.3,31.3,30.09,SSE,158,5.8,5.8,28,0.00,CLR,,0.00,1500.0,WeatherDisplay:10.37,2013-02-04 00:26:00,
2013-02-03 18:31:00,65.1,32.0,30.09,South,180,4.7,4.7,29,0.00,CLR,,0.00,1500.0,WeatherDisplay:10.37,2013-02-04 00:31:00,
2013-02-03 18:36:00,64.9,32.7,30.09,SSE,158,6.9,6.9,30,0.00,CLR,,0.00,0.0,WeatherDisplay:10.37,2013-02-04 00:36:00,
2013-02-03 18:42:00,64.8,31.7,30.09,SE,135,6.9,6.9,29,0.00,CLR,,0.00,0.0,WeatherDisplay:10.37,2013-02-04 00:42:00,
2013-02-03 18:47:00,64.6,31.6,30.09,SSE,158,4.6,4.6,29,0.00,CLR,,0.00,0.0,WeatherDisplay:10.37,2013-02-04 00:47:00,
2013-02-03 18:52:00,64.2,32.1,30.10,SE,135,3.5,3.5,30,0.00,CLR,,0.00,0.0,WeatherDisplay:10.37,2013-02-04 00:52:00,
2013-02-03 18:57:00,64.2,32.9,30.10,SSE,158,5.8,5.8,31,0.00,CLR,,0.00,0.0,WeatherDisplay:10.37,2013-02-04 00:57:00,
2013-02-03 19:02:00,63.9,32.6,30.10,SSE,158,2.3,3.5,31,0.00,CLR,,0.00,0.0,WeatherDisplay:10.37,2013-02-04 01:02:00,
2013-02-03 19:08:00,63.9,32.6,30.10,SSE,158,4.6,4.6,31,0.00,CLR,,0.00,0.0,WeatherDisplay:10.37,2013-02-04 01:08:00,
2013-02-03 19:13:00,63.5,32.3,30.08,SE,135,5.8,5.8,31,0.00,CLR,,0.00,0.0,WeatherDisplay:10.37,2013-02-04 01:13:00,
2013-02-03 19:18:00,63.5,33.1,30.08,SSE,158,6.9,6.9,32,0.00,CLR,,0.00,0.0,WeatherDisplay:10.37,2013-02-04 01:18:00,
2013-02-03 19:23:00,63.1,32.8,30.08,SSE,158,4.6,4.6,32,0.00,CLR,,0.00,0.0,WeatherDisplay:10.37,2013-02-04 01:23:00,
2013-02-03 19:28:00,63.0,32.6,30.08,SE,135,3.5,4.0,32,0.00,CLR,,0.00,0.0,WeatherDisplay:10.37,2013-02-04 01:28:00,
2013-02-03 19:34:00,63.0,32.6,30.08,SSE,158,4.6,4.6,32,0.00,CLR,,0.00,0.0,WeatherDisplay:10.37,2013-02-04 01:34:00,
2013-02-03 19:39:00,62.8,32.5,30.08,ESE,112,6.9,6.9,32,0.00,CLR,,0.00,0.0,WeatherDisplay:10.37,2013-02-04 01:39:00,
2013-02-03 19:44:00,62.6,32.3,30.08,SE,135,6.9,6.9,32,0.00,CLR,,0.00,0.0,WeatherDisplay:10.37,2013-02-04 01:44:00,
2013-02-03 19:49:00,62.8,32.5,30.08,SE,135,6.9,6.9,32,0.00,CLR,,0.00,0.0,WeatherDisplay:10.37,2013-02-04 01:49:00,
2013-02-03 19:54:00,62.2,32.8,30.08,SSE,158,6.9,6.9,33,0.00,CLR,,0.00,0.0,WeatherDisplay:10.37,2013-02-04 01:54:00,
2013-02-03 19:59:00,62.4,32.9,30.08,SE,135,3.9,3.9,33,0.00,CLR,,0.00,0.0,WeatherDisplay:10.37,2013-02-04 01:59:00,
2013-02-03 20:04:00,62.1,32.6,30.08,SSE,158,7.5,7.5,33,0.00,CLR,,0.00,0.0,WeatherDisplay:10.37,2013-02-04 02:04:00,
2013-02-03 20:10:00,61.9,32.4,30.07,SSE,158,4.6,4.6,33,0.00,CLR,,0.00,0.0,WeatherDisplay:10.37,2013-02-04 02:10:00,
2013-02-03 20:15:00,61.7,33.0,30.07,SE,135,5.8,5.8,34,0.00,CLR,,0.00,0.0,WeatherDisplay:10.37,2013-02-04 02:15:00,
2013-02-03 20:20:00,61.5,32.9,30.07,ESE,112,8.1,8.1,34,0.00,CLR,,0.00,0.0,WeatherDisplay:10.37,2013-02-04 02:20:00,
2013-02-03 20:25:00,61.3,32.7,30.07,ESE,112,6.9,6.9,34,0.00,CLR,,0.00,0.0,WeatherDisplay:10.37,2013-02-04 02:25:00,
2013-02-03 20:30:00,61.2,32.5,30.06,SSE,158,5.8,5.8,34,0.00,CLR,,0.00,0.0,WeatherDisplay:10.37,2013-02-04 02:30:00,
2013-02-03 20:35:00,61.0,32.4,30.06,NNW,338,4.6,4.6,34,0.00,CLR,,0.00,0.0,WeatherDisplay:10.37,2013-02-04 02:35:00,
2013-02-03 20:40:00,61.0,33.1,30.06,SSE,158,4.6,4.6,35,0.00,CLR,,0.00,0.0,WeatherDisplay:10.37,2013-02-04 02:40:00,
2013-02-03 20:46:00,60.8,33.0,30.06,SE,135,6.9,6.9,35,0.00,CLR,,0.00,0.0,WeatherDisplay:10.37,2013-02-04 02:46:00,
2013-02-03 20:51:00,60.6,32.8,30.06,SE,135,4.6,4.6,35,0.00,CLR,,0.00,0.0,WeatherDisplay:10.37,2013-02-04 02:51:00,
2013-02-03 20:56:00,60.6,32.8,30.06,SSE,158,6.9,6.9,35,0.00,CLR,,0.00,0.0,WeatherDisplay:10.37,2013-02-04 02:56:00,
2013-02-03 21:02:00,60.3,32.5,30.06,SSE,158,9.2,9.2,35,0.00,CLR,,0.00,0.0,WeatherDisplay:10.37,2013-02-04 03:02:00,
2013-02-03 21:07:00,60.3,32.5,30.06,SE,135,6.9,6.9,35,0.00,CLR,,0.00,0.0,WeatherDisplay:10.37,2013-02-04 03:07:00,
2013-02-03 21:12:00,60.3,32.5,30.05,SSE,158,6.9,6.9,35,0.00,CLR,,0.00,0.0,WeatherDisplay:10.37,2013-02-04 03:12:00,
2013-02-03 21:17:00,60.3,32.5,30.05,SSE,158,7.0,7.0,35,0.00,CLR,,0.00,0.0,WeatherDisplay:10.37,2013-02-04 03:17:00,
2013-02-03 21:22:00,60.1,32.3,30.05,SSE,158,9.2,9.2,35,0.00,CLR,,0.00,0.0,WeatherDisplay:10.37,2013-02-04 03:22:00,
2013-02-03 21:27:00,60.3,32.5,30.05,SE,135,12.7,12.7,35,0.00,CLR,,0.00,0.0,WeatherDisplay:10.37,2013-02-04 03:27:00,
2013-02-03 21:32:00,60.3,32.5,30.04,SSE,158,8.1,8.1,35,0.00,CLR,,0.00,0.0,WeatherDisplay:10.37,2013-02-04 03:32:00,
2013-02-03 21:38:00,60.3,32.5,30.04,SSE,158,6.9,6.9,35,0.00,CLR,,0.00,0.0,WeatherDisplay:10.37,2013-02-04 03:38:00,
2013-02-03 21:43:00,60.1,32.3,30.04,SSE,158,5.8,5.8,35,0.00,CLR,,0.00,0.0,WeatherDisplay:10.37,2013-02-04 03:43:00,
2013-02-03 21:48:00,60.1,32.3,30.04,ESE,112,12.7,12.7,35,0.00,CLR,,0.00,0.0,WeatherDisplay:10.37,2013-02-04 03:48:00,
2013-02-03 21:53:00,60.1,32.3,30.03,SSE,158,4.6,4.8,35,0.00,CLR,,0.00,0.0,WeatherDisplay:10.37,2013-02-04 03:53:00,
2013-02-03 21:58:00,60.1,32.3,30.03,ESE,112,6.9,6.9,35,0.00,CLR,,0.00,0.0,WeatherDisplay:10.37,2013-02-04 03:58:00,
2013-02-03 22:03:00,60.1,32.3,30.03,ESE,112,6.9,6.9,35,0.00,CLR,,0.00,0.0,WeatherDisplay:10.37,2013-02-04 04:03:00,
2013-02-03 22:08:00,60.1,32.3,30.02,SSE,158,2.3,4.7,35,0.00,CLR,,0.00,0.0,WeatherDisplay:10.37,2013-02-04 04:08:00,
2013-02-03 22:13:00,60.1,32.3,30.02,SSE,158,9.2,9.2,35,0.00,CLR,,0.00,0.0,WeatherDisplay:10.37,2013-02-04 04:13:00,
2013-02-03 22:19:00,60.1,32.3,30.02,East,90,10.4,10.4,35,0.00,CLR,,0.00,0.0,WeatherDisplay:10.37,2013-02-04 04:19:00,
2013-02-03 22:24:00,60.1,32.3,30.02,ESE,112,8.1,8.1,35,0.00,CLR,,0.00,0.0,WeatherDisplay:10.37,2013-02-04 04:24:00,
2013-02-03 22:29:00,60.3,31.8,30.02,SE,135,10.4,10.4,34,0.00,CLR,,0.00,0.0,WeatherDisplay:10.37,2013-02-04 04:29:00,
2013-02-03 22:34:00,60.3,31.8,30.02,SE,135,12.7,12.7,34,0.00,CLR,,0.00,0.0,WeatherDisplay:10.37,2013-02-04 04:34:00,
2013-02-03 22:39:00,60.1,31.6,30.02,SE,135,9.2,9.2,34,0.00,CLR,,0.00,0.0,WeatherDisplay:10.37,2013-02-04 04:39:00,
2013-02-03 22:45:00,59.9,32.2,30.02,ESE,112,8.2,8.2,35,0.00,CLR,,0.00,0.0,WeatherDisplay:10.37,2013-02-04 04:45:00,
2013-02-03 22:50:00,59.9,32.2,30.00,South,180,4.6,7.0,35,0.00,CLR,,0.00,0.0,WeatherDisplay:10.37,2013-02-04 04:50:00,
2013-02-03 22:55:00,59.9,31.4,30.00,SSE,158,8.1,8.1,34,0.00,CLR,,0.00,0.0,WeatherDisplay:10.37,2013-02-04 04:55:00,
2013-02-03 23:00:00,59.7,32.0,30.00,South,180,4.6,6.7,35,0.00,CLR,,0.00,0.0,WeatherDisplay:10.37,2013-02-04 05:00:00,
2013-02-03 23:02:00,59.7,32.0,30.00,SE,135,9.2,9.2,35,0.00,CLR,,0.00,0.0,WeatherDisplay:10.37,2013-02-04 05:02:00,
2013-02-03 23:05:00,59.5,31.8,30.00,SSE,158,9.5,9.5,35,0.00,CLR,,0.00,0.0,WeatherDisplay:10.37,2013-02-04 05:05:00,
2013-02-03 23:10:00,59.5,31.8,30.00,ESE,112,5.8,6.7,35,0.00,CLR,,0.00,0.0,WeatherDisplay:10.37,2013-02-04 05:10:00,
2013-02-03 23:15:00,59.5,31.8,30.00,SSE,158,10.4,10.4,35,0.00,CLR,,0.00,0.0,WeatherDisplay:10.37,2013-02-04 05:15:00,
2013-02-03 23:20:00,59.4,31.7,30.00,SE,135,9.1,9.1,35,0.00,CLR,,0.00,0.0,WeatherDisplay:10.37,2013-02-04 05:20:00,
2013-02-03 23:25:00,59.4,31.7,30.00,SE,135,7.1,7.1,35,0.00,CLR,,0.00,0.0,WeatherDisplay:10.37,2013-02-04 05:25:00,
2013-02-03 23:30:00,59.4,31.7,30.00,SE,135,8.1,8.1,35,0.00,CLR,,0.00,0.0,WeatherDisplay:10.37,2013-02-04 05:30:00,
2013-02-03 23:35:00,59.2,32.2,30.00,South,180,9.2,9.2,36,0.00,CLR,,0.00,0.0,WeatherDisplay:10.37,2013-02-04 05:35:00,
2013-02-03 23:41:00,59.2,32.2,30.00,SSE,158,10.4,10.4,36,0.00,CLR,,0.00,0.0,WeatherDisplay:10.37,2013-02-04 05:41:00,
2013-02-03 23:46:00,59.2,32.2,30.00,South,180,9.2,9.2,36,0.00,CLR,,0.00,0.0,WeatherDisplay:10.37,2013-02-04 05:46:00,
2013-02-03 23:51:00,59.0,32.1,30.00,SSE,158,9.2,9.2,36,0.00,CLR,,0.00,0.0,WeatherDisplay:10.37,2013-02-04 05:51:00,
2013-02-03 23:56:00,59.2,32.2,30.00,SE,135,6.9,6.9,36,0.00,CLR,,0.00,0.0,WeatherDisplay:10.37,2013-02-04 05:56:00,